KCVO/CVO METAR and TAF weather

Enter ICAO airport designator
Station Type Date Time Source
KCVO METAR 2021/09/23 21:56 UTC NOAA

KCVO 232156Z AUTO 04015G19KT 10SM CLR 23/11 A3019 RMK AO2 SLP222 T02330111


Station Type Date Time Source
KCVO Decoded METAR 2021/09/23 21:56 UTC NOAA

Corvallis, Corvallis Municipal Airport, OR, United States (KCVO) 44-30N 123-17W
Sep 23, 2021 - 05:56 PM EDT / 2021.09.23 2156 UTC
Wind: from the NE (040 degrees) at 17 MPH (15 KT) gusting to 22 MPH (19 KT):0
Visibility: 10 mile(s):0
Sky conditions: clear
Temperature: 73.9 F (23.3 C)
Dew Point: 52.0 F (11.1 C)
Relative Humidity: 46%
Pressure (altimeter): 30.19 in. Hg (1022 hPa)
ob: KCVO 232156Z AUTO 04015G19KT 10SM CLR 23/11 A3019 RMK AO2 SLP222 T02330111
cycle: 22

Station Type Date Time Source
KCVO TAF UTC NOAA

Error!

Example: see airport list